createdAt,value
2022-11-27T00:46:51.569Z,2.63
2022-11-27T00:49:22.744Z,2.30
2022-11-27T00:51:53.733Z,2.30
2022-11-27T00:54:24.781Z,2.27
2022-11-27T00:56:56.310Z,2.30
2022-11-27T00:59:28.368Z,2.37
2022-11-27T01:02:01.746Z,2.47
2022-11-27T01:04:34.165Z,2.27
2022-11-27T01:07:05.220Z,2.50
2022-11-27T01:09:36.031Z,2.20
2022-11-27T01:12:07.396Z,2.23
2022-11-27T01:14:38.808Z,2.10
2022-11-27T01:17:11.855Z,2.43
2022-11-27T01:19:43.284Z,1.93
2022-11-27T01:22:13.859Z,2.30
2022-11-27T01:24:45.623Z,2.17
2022-11-27T01:27:16.429Z,2.37
2022-11-27T01:29:48.767Z,2.90
2022-11-27T01:32:21.136Z,2.53
2022-11-27T01:34:54.357Z,2.03
2022-11-27T01:37:26.094Z,2.27
2022-11-27T01:39:56.684Z,2.10
2022-11-27T01:42:27.760Z,2.57
2022-11-27T01:44:59.161Z,2.17
2022-11-27T01:47:49.038Z,2.07
2022-11-27T01:50:25.567Z,2.17
2022-11-27T01:53:01.328Z,2.23
2022-11-27T01:55:36.135Z,1.93
2022-11-27T01:58:13.522Z,1.63
2022-11-27T02:00:44.938Z,2.03
2022-11-27T02:03:19.466Z,1.93
2022-11-27T02:05:51.133Z,1.90
2022-11-27T02:08:26.214Z,2.20
2022-11-27T02:11:03.849Z,2.00
2022-11-27T02:13:39.006Z,1.90
2022-11-27T02:16:20.114Z,1.83
2022-11-27T02:19:04.272Z,1.70
2022-11-27T02:21:42.982Z,1.70
2022-11-27T02:24:45.790Z,1.87
2022-11-27T02:27:41.039Z,1.83
2022-11-27T02:30:14.798Z,2.77
2022-11-27T02:32:53.188Z,2.13
2022-11-27T02:35:30.313Z,1.60
2022-11-27T02:38:05.243Z,1.63
2022-11-27T02:40:41.966Z,1.83
2022-11-27T02:43:15.906Z,1.77
2022-11-27T02:45:53.115Z,2.13
2022-11-27T02:48:28.049Z,1.33
2022-11-27T02:51:00.145Z,1.70
2022-11-27T02:53:42.265Z,1.90
2022-11-27T02:56:19.739Z,1.50
2022-11-27T02:58:52.854Z,1.20
2022-11-27T03:01:29.956Z,1.50
2022-11-27T03:04:04.482Z,1.50
2022-11-27T03:06:44.075Z,1.13
2022-11-27T03:09:21.392Z,1.40
2022-11-27T03:11:55.209Z,1.13
2022-11-27T03:14:28.163Z,1.08
2022-11-27T03:17:09.455Z,1.10
2022-11-27T03:19:47.464Z,1.47
2022-11-27T03:22:19.989Z,0.97
2022-11-27T03:24:52.043Z,1.10
2022-11-27T03:27:31.380Z,1.00
2022-11-27T03:30:06.086Z,1.20
2022-11-27T03:32:40.757Z,1.00
2022-11-27T03:35:15.478Z,1.20
2022-11-27T03:37:47.108Z,1.03
2022-11-27T03:40:18.824Z,0.80
2022-11-27T03:43:01.841Z,0.90
2022-11-27T03:45:38.441Z,1.27
2022-11-27T03:48:24.685Z,1.13
2022-11-27T03:51:13.592Z,1.27
2022-11-27T03:53:56.007Z,1.03
2022-11-27T03:56:38.526Z,1.03
2022-11-27T03:59:15.366Z,1.20
2022-11-27T04:01:47.944Z,0.90
2022-11-27T04:04:21.121Z,1.17
2022-11-27T04:06:52.305Z,1.13
2022-11-27T04:09:23.553Z,1.23
2022-11-27T04:11:54.951Z,1.20
2022-11-27T04:14:26.522Z,1.30
2022-11-27T04:16:58.806Z,1.30
2022-11-27T04:19:33.980Z,1.40
2022-11-27T04:22:05.057Z,0.90
2022-11-27T04:24:36.676Z,0.97
2022-11-27T04:27:08.770Z,0.87
2022-11-27T04:29:40.930Z,1.20
2022-11-27T04:32:12.903Z,1.20
2022-11-27T04:34:46.744Z,0.77
2022-11-27T04:37:18.958Z,0.90
2022-11-27T04:39:50.762Z,0.90
2022-11-27T04:42:22.395Z,0.60
2022-11-27T04:44:54.446Z,0.80
2022-11-27T04:47:26.514Z,0.70
2022-11-27T04:50:01.400Z,0.60
2022-11-27T04:52:32.735Z,0.87
2022-11-27T04:55:04.026Z,0.70
2022-11-27T04:57:35.849Z,1.20
2022-11-27T05:00:11.351Z,0.70
2022-11-27T05:02:42.477Z,0.73
2022-11-27T05:05:16.187Z,0.87
2022-11-27T05:07:47.586Z,0.50
2022-11-27T05:10:19.065Z,0.57
2022-11-27T05:12:50.434Z,0.80
2022-11-27T05:15:23.311Z,0.60
2022-11-27T05:17:55.849Z,0.90
2022-11-27T05:20:29.443Z,0.67
2022-11-27T05:23:00.870Z,0.80
2022-11-27T05:25:32.515Z,0.60
2022-11-27T05:28:03.756Z,0.80
2022-11-27T05:30:35.424Z,0.80
2022-11-27T05:33:09.293Z,0.67
2022-11-27T05:35:44.077Z,0.60
2022-11-27T05:38:15.860Z,0.60
2022-11-27T05:40:52.400Z,0.50
2022-11-27T05:43:25.174Z,0.60
2022-11-27T05:45:58.186Z,0.73
2022-11-27T05:48:30.380Z,0.57
2022-11-27T05:51:05.311Z,0.40
2022-11-27T05:53:38.133Z,0.60
2022-11-27T05:56:13.210Z,0.50
2022-11-27T05:58:47.085Z,0.50
2022-11-27T06:01:21.323Z,0.50
2022-11-27T06:03:53.419Z,0.57
2022-11-27T06:06:26.833Z,0.53
2022-11-27T06:08:58.017Z,0.80
2022-11-27T06:11:29.769Z,0.50
2022-11-27T06:14:01.047Z,0.60
2022-11-27T06:16:32.575Z,0.60
2022-11-27T06:19:03.981Z,0.50
2022-11-27T06:21:37.280Z,0.70
2022-11-27T06:24:09.485Z,0.60
2022-11-27T06:26:40.930Z,0.60
2022-11-27T06:29:13.159Z,0.40
2022-11-27T06:31:45.265Z,0.90
2022-11-27T06:34:18.398Z,0.50
2022-11-27T06:36:57.106Z,0.38
2022-11-27T06:39:28.368Z,0.57
2022-11-27T06:42:00.734Z,0.47
2022-11-27T06:44:32.731Z,0.57
2022-11-27T06:47:04.526Z,0.40
2022-11-27T06:49:36.439Z,0.43
2022-11-27T06:52:10.315Z,0.40
2022-11-27T06:54:42.086Z,0.40
2022-11-27T06:57:16.845Z,0.50
2022-11-27T06:59:48.395Z,0.53
2022-11-27T07:02:21.037Z,0.43
2022-11-27T07:04:53.638Z,0.70
2022-11-27T07:07:28.449Z,0.47
2022-11-27T07:10:03.954Z,0.60
2022-11-27T07:12:36.502Z,0.80
2022-11-27T07:15:15.098Z,0.60
2022-11-27T07:17:47.019Z,0.60
2022-11-27T07:20:22.041Z,0.70
2022-11-27T07:22:56.978Z,0.60
2022-11-27T07:25:29.474Z,0.50
2022-11-27T07:28:01.703Z,0.67
2022-11-27T07:30:33.094Z,0.50
2022-11-27T07:33:04.856Z,0.43
2022-11-27T07:35:36.392Z,0.67
2022-11-27T07:38:12.254Z,0.70
2022-11-27T07:40:44.403Z,0.57
2022-11-27T07:43:17.056Z,0.53
2022-11-27T07:45:49.787Z,1.20
2022-11-27T07:48:21.619Z,0.57
2022-11-27T07:50:53.073Z,0.73
2022-11-27T07:53:26.251Z,0.63
2022-11-27T07:55:58.213Z,0.63
2022-11-27T07:58:29.554Z,0.60
2022-11-27T08:01:00.963Z,0.40
2022-11-27T08:03:32.308Z,0.60
2022-11-27T08:06:03.603Z,0.60
2022-11-27T08:08:37.051Z,0.57
2022-11-27T08:11:09.266Z,0.50
2022-11-27T08:13:40.484Z,0.53
2022-11-27T08:16:12.915Z,0.87
2022-11-27T08:18:45.161Z,0.50
2022-11-27T08:21:16.340Z,0.40
2022-11-27T08:23:50.156Z,0.50
2022-11-27T08:26:22.346Z,0.50
2022-11-27T08:28:56.851Z,0.70
2022-11-27T08:31:30.256Z,0.70
2022-11-27T08:34:02.232Z,0.73
2022-11-27T08:36:33.570Z,0.80
2022-11-27T08:39:09.208Z,0.80
2022-11-27T08:41:41.220Z,0.67
